createdAt,value
2022-09-01T00:00:11.994Z,58.93
2022-09-01T00:01:12.007Z,55.37
2022-09-01T00:02:12.041Z,55.44
2022-09-01T00:03:11.971Z,60.18
2022-09-01T00:04:11.995Z,54.91
2022-09-01T00:05:12.002Z,54.90
2022-09-01T00:06:11.963Z,55.08
2022-09-01T00:07:11.967Z,63.06
2022-09-01T00:08:12.018Z,56.01
2022-09-01T00:09:12.967Z,66.26
2022-09-01T00:10:12.036Z,55.96
2022-09-01T00:11:11.943Z,55.39
2022-09-01T00:12:11.974Z,55.34
2022-09-01T00:13:11.940Z,59.56
2022-09-01T00:14:30.896Z,58.42
2022-09-01T00:15:12.898Z,58.68
2022-09-01T00:16:11.994Z,55.71
2022-09-01T00:17:11.906Z,55.45
2022-09-01T00:18:11.940Z,55.59
2022-09-01T00:19:11.870Z,55.29
2022-09-01T00:20:11.884Z,55.05
2022-09-01T00:21:11.862Z,55.41
2022-09-01T00:22:11.889Z,55.06
2022-09-01T00:23:11.851Z,56.22
2022-09-01T00:24:11.910Z,59.37
2022-09-01T00:25:11.831Z,55.25
2022-09-01T00:26:11.844Z,54.68
2022-09-01T00:27:11.826Z,55.19
2022-09-01T00:28:11.869Z,54.94
2022-09-01T00:29:11.827Z,55.10
2022-09-01T00:30:11.808Z,58.08
2022-09-01T00:31:11.927Z,55.57
2022-09-01T00:32:11.823Z,55.39
2022-09-01T00:33:11.827Z,59.65
2022-09-01T00:34:11.810Z,55.47
2022-09-01T00:35:11.787Z,55.68
2022-09-01T00:36:11.763Z,55.60
2022-09-01T00:37:11.838Z,55.56
2022-09-01T00:38:11.821Z,55.45
2022-09-01T00:39:11.775Z,59.03
2022-09-01T00:40:11.779Z,54.93
2022-09-01T00:41:11.744Z,54.81
2022-09-01T00:42:11.738Z,55.09
2022-09-01T00:43:11.730Z,60.16
2022-09-01T00:44:11.720Z,60.28
2022-09-01T00:45:11.742Z,54.92
2022-09-01T00:46:11.743Z,59.81
2022-09-01T00:47:11.718Z,59.22
2022-09-01T00:48:11.737Z,55.10
2022-09-01T00:49:11.687Z,57.53
2022-09-01T00:50:11.666Z,55.60
2022-09-01T00:51:11.694Z,57.80
2022-09-01T00:52:11.680Z,54.75
2022-09-01T00:53:11.686Z,62.21
2022-09-01T00:54:11.647Z,56.15
2022-09-01T00:55:11.682Z,54.66
2022-09-01T00:56:11.639Z,59.49
2022-09-01T00:57:11.654Z,59.22
2022-09-01T00:58:19.684Z,65.34
2022-09-01T00:59:12.618Z,55.09
2022-09-01T01:00:11.704Z,54.64
2022-09-01T01:01:11.705Z,54.56
2022-09-01T01:02:11.691Z,59.73
2022-09-01T01:03:12.607Z,54.92
2022-09-01T01:04:11.569Z,55.00
2022-09-01T01:05:14.351Z,54.97
2022-09-01T01:06:11.563Z,58.87
2022-09-01T01:07:11.550Z,57.74
2022-09-01T01:08:11.665Z,54.94
2022-09-01T01:09:11.534Z,55.03
2022-09-01T01:10:11.554Z,60.61
2022-09-01T01:11:11.521Z,56.31
2022-09-01T01:12:11.558Z,55.42
2022-09-01T01:13:11.530Z,63.13
2022-09-01T01:14:11.504Z,55.35
2022-09-01T01:15:11.509Z,55.38
2022-09-01T01:16:11.594Z,61.20
2022-09-01T01:17:11.507Z,55.14
2022-09-01T01:18:11.479Z,68.43
2022-09-01T01:19:11.509Z,58.70
2022-09-01T01:20:11.475Z,56.12
2022-09-01T01:21:11.462Z,55.07
2022-09-01T01:22:11.494Z,54.81
2022-09-01T01:23:11.451Z,55.02
2022-09-01T01:24:11.456Z,61.66
2022-09-01T01:25:11.430Z,54.88
2022-09-01T01:26:11.454Z,54.82
2022-09-01T01:27:11.421Z,58.20
2022-09-01T01:28:11.496Z,54.08
2022-09-01T01:29:11.420Z,59.35
2022-09-01T01:30:11.406Z,54.46
2022-09-01T01:31:11.433Z,54.23
2022-09-01T01:32:11.434Z,54.08
2022-09-01T01:33:12.422Z,58.99
2022-09-01T01:34:11.409Z,58.85
2022-09-01T01:35:11.362Z,59.48
2022-09-01T01:36:11.370Z,60.03
2022-09-01T01:37:11.358Z,57.64
2022-09-01T01:38:11.356Z,53.62
2022-09-01T01:39:11.332Z,58.53
2022-09-01T01:40:11.344Z,53.53
2022-09-01T01:41:11.353Z,57.66
2022-09-01T01:42:11.341Z,53.74
2022-09-01T01:43:11.306Z,58.75
2022-09-01T01:44:11.331Z,58.14
2022-09-01T01:45:11.281Z,53.14
2022-09-01T01:46:11.384Z,53.21
2022-09-01T01:47:11.270Z,59.35
2022-09-01T01:48:11.292Z,61.17
2022-09-01T01:49:11.257Z,53.86
2022-09-01T01:50:11.302Z,65.52
2022-09-01T01:51:11.242Z,53.97
2022-09-01T01:52:11.245Z,53.64
2022-09-01T01:53:11.771Z,54.95
2022-09-01T01:54:11.217Z,56.86
2022-09-01T01:55:11.217Z,59.45
2022-09-01T01:56:11.205Z,57.82
2022-09-01T01:57:11.245Z,53.95
2022-09-01T01:58:11.236Z,61.32
2022-09-01T01:59:11.226Z,53.52
2022-09-01T02:00:11.174Z,59.14
2022-09-01T02:01:11.255Z,58.19
2022-09-01T02:02:11.212Z,53.77
2022-09-01T02:03:11.161Z,59.52
2022-09-01T02:04:11.179Z,57.60
2022-09-01T02:05:11.142Z,53.39
2022-09-01T02:06:11.158Z,58.01
2022-09-01T02:07:11.125Z,56.24
2022-09-01T02:08:11.128Z,53.46
2022-09-01T02:09:11.144Z,63.11
2022-09-01T02:10:11.105Z,52.95
2022-09-01T02:11:11.109Z,58.40
2022-09-01T02:12:11.097Z,52.55
2022-09-01T02:13:11.103Z,54.73
2022-09-01T02:14:11.089Z,58.21
2022-09-01T02:15:11.097Z,52.33
2022-09-01T02:16:11.082Z,52.40
2022-09-01T02:17:11.101Z,52.64
2022-09-01T02:18:11.060Z,52.28
2022-09-01T02:19:11.081Z,52.12
2022-09-01T02:20:11.037Z,52.24
2022-09-01T02:21:15.135Z,53.11
2022-09-01T02:22:13.021Z,61.03
2022-09-01T02:23:11.014Z,62.65
2022-09-01T02:24:11.077Z,53.12
2022-09-01T02:25:11.001Z,52.98
2022-09-01T02:26:18.265Z,56.99
2022-09-01T02:27:12.993Z,53.69
2022-09-01T02:28:10.977Z,56.57
2022-09-01T02:29:10.969Z,53.88
2022-09-01T02:30:10.981Z,59.25
2022-09-01T02:31:11.008Z,58.65
2022-09-01T02:32:10.971Z,60.29
2022-09-01T02:33:10.949Z,60.03
2022-09-01T02:34:10.993Z,57.88
2022-09-01T02:35:10.961Z,62.35
2022-09-01T02:36:10.916Z,56.98
2022-09-01T02:37:10.964Z,51.97
2022-09-01T02:38:10.905Z,51.75
2022-09-01T02:39:10.929Z,53.70
2022-09-01T02:40:10.960Z,55.21
2022-09-01T02:41:10.942Z,61.68
2022-09-01T02:42:10.873Z,53.45
2022-09-01T02:43:10.861Z,62.90
2022-09-01T02:44:10.900Z,64.63
2022-09-01T02:45:10.856Z,57.50
2022-09-01T02:46:11.004Z,60.19
2022-09-01T02:47:10.850Z,57.65
2022-09-01T02:48:10.833Z,64.65
2022-09-01T02:49:10.845Z,60.58
2022-09-01T02:50:10.821Z,53.75
2022-09-01T02:51:10.816Z,53.93
2022-09-01T02:52:10.813Z,64.05
2022-09-01T02:53:10.824Z,62.25
2022-09-01T02:54:10.793Z,56.86
2022-09-01T02:55:10.801Z,56.86
2022-09-01T02:56:10.833Z,62.41
2022-09-01T02:57:10.821Z,70.86
2022-09-01T02:58:10.761Z,66.38
2022-09-01T02:59:10.792Z,61.42
2022-09-01T03:00:10.753Z,56.98
2022-09-01T03:01:10.811Z,59.80
2022-09-01T03:02:10.738Z,60.18
2022-09-01T03:03:10.741Z,63.07
2022-09-01T03:04:10.736Z,63.68
2022-09-01T03:05:10.787Z,62.57
2022-09-01T03:06:10.732Z,63.94
2022-09-01T03:07:10.704Z,62.63
2022-09-01T03:08:10.717Z,67.53
2022-09-01T03:09:11.320Z,68.46
2022-09-01T03:10:10.685Z,62.55
2022-09-01T03:11:13.058Z,58.32
2022-09-01T03:12:11.678Z,60.73
2022-09-01T03:13:10.660Z,64.32
2022-09-01T03:14:10.692Z,54.18
2022-09-01T03:15:10.653Z,62.98
2022-09-01T03:16:10.700Z,64.87
2022-09-01T03:17:10.644Z,61.30
2022-09-01T03:18:10.641Z,67.85
2022-09-01T03:19:10.712Z,66.17
2022-09-01T03:20:10.623Z,69.28
2022-09-01T03:21:10.614Z,65.83
2022-09-01T03:22:10.654Z,67.31
2022-09-01T03:23:10.640Z,63.98
2022-09-01T03:24:10.614Z,63.36
2022-09-01T03:25:10.600Z,61.51
2022-09-01T03:26:10.584Z,67.66
2022-09-01T03:27:10.601Z,68.65
2022-09-01T03:28:10.588Z,61.61
2022-09-01T03:29:10.612Z,61.47
2022-09-01T03:30:10.569Z,63.54
2022-09-01T03:31:10.580Z,64.53
2022-09-01T03:32:10.624Z,64.96
2022-09-01T03:33:10.632Z,70.62
2022-09-01T03:34:10.557Z,58.26
2022-09-01T03:35:10.528Z,70.11
2022-09-01T03:36:14.703Z,66.98
2022-09-01T03:37:10.541Z,62.01
2022-09-01T03:38:10.521Z,68.88
2022-09-01T03:39:13.403Z,67.22
2022-09-01T03:40:12.538Z,69.60
2022-09-01T03:41:10.538Z,62.20
2022-09-01T03:42:10.510Z,65.92
2022-09-01T03:43:10.509Z,71.72
2022-09-01T03:44:10.508Z,68.25
2022-09-01T03:45:10.471Z,67.59
2022-09-01T03:46:10.515Z,67.96
2022-09-01T03:47:10.462Z,69.36
2022-09-01T03:48:10.491Z,64.77
2022-09-01T03:49:10.454Z,71.12
2022-09-01T03:50:10.520Z,64.58
2022-09-01T03:51:10.442Z,68.01
2022-09-01T03:52:10.435Z,68.68
2022-09-01T03:53:10.444Z,62.18
2022-09-01T03:54:10.423Z,68.66
2022-09-01T03:55:10.438Z,68.78
2022-09-01T03:56:10.418Z,71.06
2022-09-01T03:57:10.394Z,64.69
2022-09-01T03:58:10.410Z,66.68
2022-09-01T03:59:10.400Z,62.35
2022-09-01T04:00:10.418Z,65.17
2022-09-01T04:01:13.775Z,70.57
2022-09-01T04:02:10.421Z,67.49
2022-09-01T04:03:10.367Z,70.36
2022-09-01T04:04:10.360Z,63.57
2022-09-01T04:05:10.373Z,73.65
2022-09-01T04:06:10.374Z,70.90
2022-09-01T04:07:10.364Z,66.24
2022-09-01T04:08:11.353Z,68.90
2022-09-01T04:09:10.352Z,71.98
2022-09-01T04:10:10.336Z,70.32
2022-09-01T04:11:10.370Z,65.83
2022-09-01T04:12:10.318Z,74.68
2022-09-01T04:13:10.353Z,63.50
2022-09-01T04:14:10.351Z,67.52
2022-09-01T04:15:10.305Z,67.10
2022-09-01T04:16:10.447Z,66.14
2022-09-01T04:17:10.300Z,70.26
2022-09-01T04:18:10.279Z,70.54
2022-09-01T04:19:10.279Z,72.60
2022-09-01T04:20:10.273Z,64.29
2022-09-01T04:21:10.255Z,70.03
2022-09-01T04:22:10.338Z,67.52
2022-09-01T04:23:10.256Z,71.79
2022-09-01T04:24:10.236Z,67.34
2022-09-01T04:25:10.241Z,74.37
2022-09-01T04:26:10.237Z,67.16
2022-09-01T04:27:10.247Z,73.62
2022-09-01T04:28:10.208Z,69.10
2022-09-01T04:29:10.248Z,68.40
2022-09-01T04:30:10.212Z,69.86
2022-09-01T04:31:10.187Z,67.62
2022-09-01T04:32:10.232Z,70.97
2022-09-01T04:33:10.185Z,69.43
2022-09-01T04:34:10.180Z,71.30
2022-09-01T04:35:10.201Z,70.45
2022-09-01T04:36:10.160Z,71.71
2022-09-01T04:37:10.181Z,65.63
2022-09-01T04:38:10.172Z,66.67
2022-09-01T04:39:10.148Z,72.31
2022-09-01T04:40:10.186Z,72.31
2022-09-01T04:41:10.120Z,73.94
2022-09-01T04:42:10.129Z,72.86
2022-09-01T04:43:10.137Z,72.23
2022-09-01T04:44:10.177Z,74.18
2022-09-01T04:45:11.083Z,72.51
2022-09-01T04:46:10.142Z,69.71
2022-09-01T04:47:10.092Z,66.63
2022-09-01T04:48:10.092Z,70.49
2022-09-01T04:49:10.288Z,70.68
2022-09-01T04:50:10.077Z,69.55
2022-09-01T04:51:10.131Z,70.23
2022-09-01T04:52:10.060Z,73.20
2022-09-01T04:53:10.132Z,72.04
2022-09-01T04:54:10.069Z,72.43
2022-09-01T04:55:10.058Z,69.08
2022-09-01T04:56:10.101Z,72.19
2022-09-01T04:57:10.029Z,66.89
2022-09-01T04:58:10.417Z,69.23
2022-09-01T04:59:11.042Z,69.35
2022-09-01T05:00:10.026Z,68.83
2022-09-01T05:01:10.076Z,69.18
2022-09-01T05:02:10.042Z,69.74
2022-09-01T05:03:10.043Z,69.31
2022-09-01T05:04:10.041Z,68.28
2022-09-01T05:05:09.981Z,67.93
2022-09-01T05:06:09.974Z,72.73
2022-09-01T05:07:09.974Z,75.70
2022-09-01T05:08:10.009Z,72.55
2022-09-01T05:09:09.993Z,71.49
2022-09-01T05:10:09.957Z,68.98
2022-09-01T05:11:09.999Z,69.02
2022-09-01T05:12:09.937Z,74.08
2022-09-01T05:13:10.949Z,68.19
2022-09-01T05:14:09.983Z,71.81
2022-09-01T05:15:09.914Z,72.41
2022-09-01T05:16:09.992Z,73.47
2022-09-01T05:17:09.914Z,73.42
2022-09-01T05:18:09.944Z,70.57
2022-09-01T05:19:09.969Z,75.29
2022-09-01T05:20:09.985Z,68.15
2022-09-01T05:21:09.991Z,76.25
2022-09-01T05:22:09.942Z,70.14
2022-09-01T05:23:10.283Z,71.64
2022-09-01T05:24:10.858Z,68.34
2022-09-01T05:25:09.889Z,69.96
2022-09-01T05:26:09.848Z,70.52
2022-09-01T05:27:09.825Z,73.51
2022-09-01T05:28:10.844Z,70.77
2022-09-01T05:29:09.857Z,67.86
2022-09-01T05:30:09.821Z,73.12
2022-09-01T05:31:09.874Z,68.36
2022-09-01T05:32:09.800Z,72.55
2022-09-01T05:33:09.813Z,73.27
2022-09-01T05:34:10.263Z,72.59
2022-09-01T05:35:09.798Z,72.23
2022-09-01T05:36:09.782Z,68.05
2022-09-01T05:37:09.847Z,72.70
2022-09-01T05:38:09.804Z,73.10
2022-09-01T05:39:09.855Z,73.24
2022-09-01T05:40:09.880Z,72.28
2022-09-01T05:41:09.762Z,70.96
2022-09-01T05:42:09.837Z,64.75
2022-09-01T05:43:09.827Z,71.10
2022-09-01T05:44:09.733Z,71.54
2022-09-01T05:45:09.711Z,70.76
2022-09-01T05:46:09.723Z,72.11
2022-09-01T05:47:09.721Z,72.38
2022-09-01T05:48:11.286Z,72.60
2022-09-01T05:49:09.706Z,69.08
2022-09-01T05:50:13.644Z,73.77
2022-09-01T05:51:27.358Z,72.05
2022-09-01T05:52:11.694Z,72.87
2022-09-01T05:53:12.840Z,73.83
2022-09-01T05:54:09.681Z,70.06
2022-09-01T05:55:09.700Z,64.95
2022-09-01T05:56:09.650Z,71.06
2022-09-01T05:57:32.804Z,67.27
2022-09-01T05:58:11.710Z,70.46
2022-09-01T05:59:26.019Z,69.38
2022-09-01T06:00:11.624Z,65.12
2022-09-01T06:01:09.628Z,68.02
2022-09-01T06:02:09.714Z,64.10
2022-09-01T06:03:09.738Z,70.46
2022-09-01T06:04:10.592Z,69.55
2022-09-01T06:05:09.579Z,68.27
2022-09-01T06:06:09.563Z,72.12
2022-09-01T06:07:11.836Z,69.95
2022-09-01T06:08:11.554Z,71.37
2022-09-01T06:09:09.575Z,72.31
2022-09-01T06:10:09.544Z,70.85
2022-09-01T06:11:09.533Z,67.46
2022-09-01T06:12:09.534Z,70.66
2022-09-01T06:13:09.507Z,70.42
2022-09-01T06:14:09.501Z,71.17
2022-09-01T06:15:09.526Z,70.12
2022-09-01T06:16:09.528Z,72.91
2022-09-01T06:17:09.502Z,70.97
2022-09-01T06:18:09.546Z,72.64
2022-09-01T06:19:09.470Z,64.45
2022-09-01T06:20:09.485Z,72.73
2022-09-01T06:21:09.478Z,70.52
2022-09-01T06:22:09.451Z,70.86
2022-09-01T06:23:09.456Z,68.28
2022-09-01T06:24:09.466Z,72.59
2022-09-01T06:25:09.445Z,70.18
2022-09-01T06:26:09.454Z,72.53
2022-09-01T06:27:09.458Z,69.26
2022-09-01T06:28:09.735Z,68.21
2022-09-01T06:29:09.414Z,72.05
2022-09-01T06:30:09.415Z,74.51
2022-09-01T06:31:09.578Z,68.15
2022-09-01T06:32:09.387Z,67.74
2022-09-01T06:33:09.427Z,69.64
2022-09-01T06:34:09.408Z,68.85
2022-09-01T06:35:09.387Z,68.31
2022-09-01T06:36:09.356Z,64.94
2022-09-01T06:37:09.364Z,71.67
2022-09-01T06:38:09.358Z,71.64
2022-09-01T06:39:09.373Z,75.69
2022-09-01T06:40:09.413Z,73.18
2022-09-01T06:41:09.581Z,63.92
2022-09-01T06:42:09.334Z,72.31
2022-09-01T06:43:09.342Z,64.16
2022-09-01T06:44:14.322Z,69.65
2022-09-01T06:45:11.299Z,70.22
2022-09-01T06:46:09.358Z,69.85
2022-09-01T06:47:09.324Z,71.73
2022-09-01T06:48:09.299Z,69.99
2022-09-01T06:49:09.338Z,72.09
2022-09-01T06:50:09.275Z,71.29
2022-09-01T06:51:18.335Z,71.46
2022-09-01T06:52:11.278Z,66.22
2022-09-01T06:54:14.611Z,71.44
2022-09-01T06:55:10.233Z,72.98
2022-09-01T06:56:09.250Z,72.84
2022-09-01T06:58:13.931Z,65.49
2022-09-01T06:59:09.222Z,65.58
2022-09-01T07:00:09.237Z,65.50
2022-09-01T07:01:09.222Z,65.77
2022-09-01T07:02:13.946Z,67.99
2022-09-01T07:03:11.183Z,70.34
2022-09-01T07:04:12.839Z,71.10
2022-09-01T07:05:59.707Z,71.98
2022-09-01T07:06:58.706Z,68.36
2022-09-01T07:08:11.147Z,67.41
2022-09-01T07:09:38.641Z,70.84
2022-09-01T07:10:21.185Z,66.11
2022-09-01T07:12:26.781Z,72.09
2022-09-01T07:13:11.141Z,74.18
2022-09-01T07:14:16.216Z,76.42
2022-09-01T07:17:26.362Z,61.16
2022-09-01T07:18:11.125Z,68.43
2022-09-01T07:19:09.085Z,67.88
2022-09-01T07:20:25.875Z,73.79
2022-09-01T07:21:38.820Z,72.12
2022-09-01T07:22:35.298Z,67.15
2022-09-01T07:23:10.077Z,71.74
2022-09-01T07:24:10.479Z,69.22
2022-09-01T07:25:12.123Z,68.75
2022-09-01T07:26:10.072Z,64.73
2022-09-01T07:27:09.267Z,72.06
2022-09-01T07:28:09.021Z,70.70
2022-09-01T07:29:09.068Z,69.76
2022-09-01T07:30:09.036Z,70.13
2022-09-01T07:34:40.139Z,73.83
2022-09-01T07:36:25.815Z,70.27
2022-09-01T07:38:47.244Z,67.67
2022-09-01T07:43:10.915Z,69.82
2022-09-01T07:44:08.903Z,72.03
2022-09-01T07:48:10.919Z,69.28
2022-09-01T07:50:25.411Z,69.29
2022-09-01T07:52:10.867Z,64.53
2022-09-01T07:53:08.859Z,67.61
2022-09-01T07:54:08.849Z,68.44
2022-09-01T07:55:08.841Z,70.88
2022-09-01T07:56:08.837Z,70.40
2022-09-01T07:57:08.829Z,67.78
2022-09-01T07:58:08.854Z,66.00
2022-09-01T07:59:08.848Z,70.87
2022-09-01T08:00:08.801Z,69.70
2022-09-01T08:01:08.825Z,72.77
2022-09-01T08:02:08.829Z,68.78
2022-09-01T08:03:08.825Z,67.97
2022-09-01T08:04:08.778Z,71.39
2022-09-01T08:05:08.774Z,72.59
2022-09-01T08:06:08.803Z,68.70
2022-09-01T08:07:08.746Z,69.00
2022-09-01T08:08:28.670Z,71.41
2022-09-01T08:09:11.628Z,68.63
2022-09-01T08:10:08.729Z,67.14
2022-09-01T08:11:09.753Z,68.04
2022-09-01T08:12:08.755Z,66.15
2022-09-01T08:13:15.350Z,71.19
2022-09-01T08:14:10.445Z,61.34
2022-09-01T08:16:18.444Z,67.37
2022-09-01T08:17:18.121Z,71.84
2022-09-01T08:18:14.178Z,66.71
2022-09-01T08:19:16.633Z,68.25
2022-09-01T08:20:14.107Z,71.90
2022-09-01T08:21:08.651Z,72.07
2022-09-01T08:22:08.803Z,67.88
2022-09-01T08:23:08.699Z,72.62
2022-09-01T08:24:08.690Z,67.76
2022-09-01T08:25:08.839Z,68.59
2022-09-01T08:26:08.635Z,73.12
2022-09-01T08:27:08.700Z,66.31
2022-09-01T08:28:08.654Z,70.57
2022-09-01T08:29:08.626Z,67.86
2022-09-01T08:30:52.493Z,66.09
2022-09-01T08:31:11.179Z,60.34
2022-09-01T08:32:09.654Z,67.64
2022-09-01T08:33:11.650Z,71.12
2022-09-01T08:34:09.621Z,68.05
2022-09-01T08:35:09.390Z,69.33
2022-09-01T08:36:08.588Z,71.60
2022-09-01T08:37:08.593Z,67.09
2022-09-01T08:38:08.626Z,67.53
2022-09-01T08:39:08.559Z,68.40
2022-09-01T08:40:08.586Z,66.69
2022-09-01T08:41:08.541Z,65.34
2022-09-01T08:42:08.648Z,73.45
2022-09-01T08:43:13.200Z,69.98
2022-09-01T08:44:09.542Z,69.70
2022-09-01T08:45:08.538Z,67.82
2022-09-01T08:46:08.558Z,69.63
2022-09-01T08:47:13.618Z,71.10
2022-09-01T08:49:02.697Z,70.50
2022-09-01T08:49:24.656Z,67.98
2022-09-01T08:50:10.490Z,68.92
2022-09-01T08:51:14.108Z,70.13
2022-09-01T08:52:10.477Z,69.14
2022-09-01T08:53:09.717Z,69.27
2022-09-01T08:54:09.491Z,68.45
2022-09-01T08:55:08.442Z,70.51
2022-09-01T08:56:08.593Z,66.93
2022-09-01T08:57:08.431Z,70.46
2022-09-01T08:58:09.788Z,71.27
2022-09-01T08:59:08.465Z,68.00
2022-09-01T09:00:08.420Z,68.87
2022-09-01T09:01:08.514Z,66.06
2022-09-01T09:02:09.336Z,70.98
2022-09-01T09:03:08.816Z,68.06
2022-09-01T09:04:08.404Z,71.83
2022-09-01T09:05:15.919Z,60.86
2022-09-01T09:06:10.400Z,71.01
2022-09-01T09:07:08.381Z,68.36
2022-09-01T09:08:08.368Z,69.14
2022-09-01T09:09:08.375Z,66.27
2022-09-01T09:10:08.376Z,66.44
2022-09-01T09:11:08.384Z,69.04
2022-09-01T09:12:08.704Z,68.90
2022-09-01T09:13:10.224Z,71.45
2022-09-01T09:14:08.369Z,67.97
2022-09-01T09:15:08.376Z,70.27
2022-09-01T09:16:08.853Z,69.17
2022-09-01T09:17:09.364Z,69.02
2022-09-01T09:18:20.268Z,66.81
2022-09-01T09:19:09.328Z,68.92
2022-09-01T09:20:09.279Z,68.45
2022-09-01T09:21:08.333Z,66.25
2022-09-01T09:22:08.359Z,67.17
2022-09-01T09:23:08.521Z,65.54
2022-09-01T09:24:08.343Z,60.99
2022-09-01T09:25:08.372Z,66.53
2022-09-01T09:26:08.431Z,69.51
2022-09-01T09:27:09.725Z,63.32
2022-09-01T09:28:08.286Z,70.52
2022-09-01T09:29:08.275Z,70.41
2022-09-01T09:30:11.178Z,68.99
2022-09-01T09:31:09.308Z,68.69
2022-09-01T09:32:22.486Z,69.81
2022-09-01T09:33:44.293Z,71.38
2022-09-01T09:34:10.835Z,72.28
2022-09-01T09:35:08.260Z,69.14
2022-09-01T09:36:08.245Z,65.53
2022-09-01T09:37:08.236Z,67.03
2022-09-01T09:38:08.358Z,68.83
2022-09-01T09:39:08.243Z,67.67
2022-09-01T09:40:10.072Z,67.72
2022-09-01T09:41:18.816Z,65.31
2022-09-01T09:42:10.249Z,73.59
2022-09-01T09:43:08.211Z,71.68
2022-09-01T09:44:11.280Z,69.65
2022-09-01T09:45:09.917Z,71.98
2022-09-01T09:46:23.414Z,69.95
2022-09-01T09:47:27.287Z,69.32
2022-09-01T09:48:10.989Z,70.64
2022-09-01T09:49:08.160Z,68.78
2022-09-01T09:50:08.150Z,68.15
2022-09-01T09:51:08.198Z,67.69
2022-09-01T09:52:08.206Z,71.18
2022-09-01T09:53:08.142Z,72.31
2022-09-01T09:54:08.119Z,67.00
2022-09-01T09:55:09.122Z,70.35
2022-09-01T09:56:08.134Z,67.78
2022-09-01T09:57:08.137Z,69.26
2022-09-01T09:58:08.106Z,68.06
2022-09-01T09:59:08.101Z,69.34
2022-09-01T10:00:08.101Z,66.64
2022-09-01T10:01:08.165Z,70.05
2022-09-01T10:02:08.118Z,70.27
2022-09-01T10:03:10.227Z,70.88
2022-09-01T10:04:08.294Z,71.53
2022-09-01T10:05:08.075Z,69.44
2022-09-01T10:06:08.070Z,72.11
2022-09-01T10:07:08.065Z,67.15
2022-09-01T10:08:08.048Z,71.19
2022-09-01T10:09:08.104Z,70.04
2022-09-01T10:10:09.037Z,69.70
2022-09-01T10:11:08.287Z,69.81
2022-09-01T10:12:08.711Z,67.27
2022-09-01T10:13:08.006Z,68.65
2022-09-01T10:14:08.055Z,68.76
2022-09-01T10:15:12.735Z,72.54
2022-09-01T10:16:09.418Z,69.54
2022-09-01T10:17:09.108Z,67.32
2022-09-01T10:18:28.991Z,69.75
2022-09-01T10:19:12.585Z,66.34
2022-09-01T10:20:07.986Z,67.49
2022-09-01T10:21:07.961Z,70.90
2022-09-01T10:22:08.036Z,67.98
2022-09-01T10:23:14.867Z,72.31
2022-09-01T10:24:26.993Z,71.51
2022-09-01T10:25:10.838Z,70.74
2022-09-01T10:26:09.552Z,70.61
2022-09-01T10:27:14.296Z,71.50
2022-09-01T10:28:09.983Z,70.83
2022-09-01T10:29:08.402Z,71.40
2022-09-01T10:30:19.162Z,70.73
2022-09-01T10:31:09.972Z,71.25
2022-09-01T10:32:31.396Z,68.83
2022-09-01T10:33:19.286Z,71.67
2022-09-01T10:34:09.899Z,72.17
2022-09-01T10:35:07.906Z,70.93
2022-09-01T10:36:08.032Z,67.34
2022-09-01T10:37:10.546Z,70.95
2022-09-01T10:38:08.881Z,68.13
2022-09-01T10:39:09.173Z,67.56
2022-09-01T10:40:08.937Z,68.97
2022-09-01T10:41:08.842Z,66.58
2022-09-01T10:42:08.844Z,69.90
2022-09-01T10:43:12.434Z,66.51
2022-09-01T10:44:07.847Z,69.67
2022-09-01T10:45:07.863Z,65.71
2022-09-01T10:46:09.141Z,68.37
2022-09-01T10:47:13.594Z,69.23
2022-09-01T10:48:13.037Z,69.86
2022-09-01T10:49:08.240Z,67.98
2022-09-01T10:50:10.017Z,73.20
2022-09-01T10:51:08.828Z,69.96
2022-09-01T10:52:13.239Z,70.23
2022-09-01T10:53:09.803Z,66.92
2022-09-01T10:54:08.349Z,73.91
2022-09-01T10:55:07.817Z,72.05
2022-09-01T10:56:18.774Z,71.88
2022-09-01T10:57:12.287Z,72.19
2022-09-01T10:59:29.891Z,70.09
2022-09-01T11:00:34.754Z,69.42
2022-09-01T11:01:11.195Z,67.59
2022-09-01T11:02:27.558Z,68.59
2022-09-01T11:04:10.326Z,70.59
2022-09-01T11:05:07.744Z,73.44
2022-09-01T11:06:14.881Z,71.29
2022-09-01T11:07:12.881Z,68.65
2022-09-01T11:08:15.826Z,65.96
2022-09-01T11:09:09.713Z,68.53
2022-09-01T11:10:11.377Z,67.82
2022-09-01T11:11:09.699Z,68.18
2022-09-01T11:12:07.689Z,71.94
2022-09-01T11:13:07.658Z,70.59
2022-09-01T11:14:09.420Z,67.63
2022-09-01T11:15:07.662Z,63.68
2022-09-01T11:16:07.701Z,73.42
2022-09-01T11:17:07.801Z,72.75
2022-09-01T11:18:08.478Z,70.46
2022-09-01T11:19:14.015Z,66.34
2022-09-01T11:20:09.617Z,65.73
2022-09-01T11:21:08.605Z,70.37
2022-09-01T11:22:07.604Z,68.04
2022-09-01T11:23:07.592Z,66.14
2022-09-01T11:24:07.667Z,70.21
2022-09-01T11:25:12.134Z,66.56
2022-09-01T11:26:23.951Z,69.05
2022-09-01T11:27:09.593Z,66.50
2022-09-01T11:28:07.557Z,69.77
2022-09-01T11:29:07.566Z,70.04
2022-09-01T11:30:08.450Z,64.92
2022-09-01T11:31:09.044Z,70.10
2022-09-01T11:32:07.661Z,68.50
2022-09-01T11:33:07.641Z,71.45
2022-09-01T11:34:07.540Z,69.27
2022-09-01T11:35:07.564Z,67.49
2022-09-01T11:36:07.557Z,70.18
2022-09-01T11:37:07.739Z,66.27
2022-09-01T11:38:07.550Z,66.30
2022-09-01T11:39:07.503Z,66.45
2022-09-01T11:40:07.584Z,66.21
2022-09-01T11:41:07.523Z,67.27
2022-09-01T11:42:08.464Z,63.93
2022-09-01T11:43:09.729Z,69.71
2022-09-01T11:44:08.478Z,70.77
2022-09-01T11:45:07.478Z,70.98
2022-09-01T11:46:07.500Z,69.59
2022-09-01T11:47:12.008Z,69.06
2022-09-01T11:48:09.442Z,69.72
2022-09-01T11:49:07.435Z,65.38
2022-09-01T11:50:07.440Z,69.90
2022-09-01T11:51:07.444Z,69.67
2022-09-01T11:52:08.452Z,69.00
2022-09-01T11:53:07.452Z,68.65
2022-09-01T11:54:07.452Z,65.69
2022-09-01T11:55:07.416Z,65.37
2022-09-01T11:56:08.429Z,66.49
2022-09-01T11:57:07.431Z,67.59
2022-09-01T11:58:07.403Z,69.75
2022-09-01T11:59:07.404Z,71.23
2022-09-01T12:00:07.418Z,71.56
2022-09-01T12:01:07.444Z,68.93
2022-09-01T12:02:07.434Z,72.43
2022-09-01T12:03:07.480Z,69.93
2022-09-01T12:04:07.429Z,67.81
2022-09-01T12:05:07.341Z,70.17
2022-09-01T12:06:08.799Z,69.55
2022-09-01T12:07:08.040Z,69.48
2022-09-01T12:08:07.348Z,67.37
2022-09-01T12:09:07.339Z,68.06
2022-09-01T12:10:07.332Z,68.24
2022-09-01T12:11:07.331Z,70.23
2022-09-01T12:12:07.305Z,67.50
2022-09-01T12:13:07.320Z,66.39
2022-09-01T12:14:11.133Z,68.21
2022-09-01T12:15:08.330Z,64.82
2022-09-01T12:16:18.499Z,67.08
2022-09-01T12:17:09.358Z,65.93
2022-09-01T12:18:07.308Z,67.28
2022-09-01T12:19:07.279Z,69.71
2022-09-01T12:20:07.319Z,65.67
2022-09-01T12:21:07.273Z,67.29
2022-09-01T12:22:07.262Z,69.73
2022-09-01T12:23:07.283Z,67.87
2022-09-01T12:24:07.248Z,70.94
2022-09-01T12:25:07.250Z,65.98
2022-09-01T12:26:07.243Z,67.63
2022-09-01T12:27:07.235Z,68.76
2022-09-01T12:28:07.218Z,68.29
2022-09-01T12:29:07.210Z,69.26
2022-09-01T12:30:07.228Z,70.40
2022-09-01T12:31:07.399Z,71.61
2022-09-01T12:32:07.269Z,70.97
2022-09-01T12:34:09.175Z,67.77
2022-09-01T12:35:11.287Z,68.89
2022-09-01T12:36:08.169Z,65.07
2022-09-01T12:37:07.169Z,68.65
2022-09-01T12:38:09.643Z,66.68
2022-09-01T12:39:08.169Z,70.03
2022-09-01T12:40:07.765Z,68.28
2022-09-01T12:41:07.587Z,68.41
2022-09-01T12:42:07.169Z,68.20
2022-09-01T12:43:07.897Z,70.00
2022-09-01T12:44:07.114Z,69.67
2022-09-01T12:45:09.066Z,67.29
2022-09-01T12:46:07.134Z,70.84
2022-09-01T12:47:07.153Z,68.63
2022-09-01T12:48:07.142Z,68.21
2022-09-01T12:49:07.154Z,69.48
2022-09-01T12:50:07.093Z,68.32
2022-09-01T12:51:09.287Z,70.68
2022-09-01T12:52:07.068Z,65.32
2022-09-01T12:53:08.430Z,67.60
2022-09-01T12:54:09.445Z,67.68
2022-09-01T12:55:07.072Z,66.60
2022-09-01T12:56:07.036Z,70.69
2022-09-01T12:57:07.073Z,67.12
2022-09-01T12:58:07.029Z,66.54
2022-09-01T12:59:09.603Z,65.66
2022-09-01T13:00:09.012Z,71.20
2022-09-01T13:01:08.766Z,69.07
2022-09-01T13:02:08.451Z,67.87
2022-09-01T13:03:08.278Z,67.00
2022-09-01T13:04:07.073Z,61.85
2022-09-01T13:05:07.039Z,66.35
2022-09-01T13:06:08.004Z,66.36
2022-09-01T13:07:07.625Z,69.13
2022-09-01T13:08:07.666Z,66.87
2022-09-01T13:09:06.956Z,63.46
2022-09-01T13:10:07.512Z,66.54
2022-09-01T13:11:06.975Z,67.88
2022-09-01T13:12:07.636Z,70.21
2022-09-01T13:13:06.980Z,71.31
2022-09-01T13:14:06.925Z,65.68
2022-09-01T13:15:07.927Z,65.50
2022-09-01T13:16:06.977Z,71.97